sensor_id;sensor_type;location;lat;lon;timestamp;temperature;humidity
51567;DHT22;37657;53.182;5.638;2024-02-28T00:01:37;4.00;99.90
51567;DHT22;37657;53.182;5.638;2024-02-28T00:04:03;3.80;99.90
51567;DHT22;37657;53.182;5.638;2024-02-28T00:06:29;3.90;99.90
51567;DHT22;37657;53.182;5.638;2024-02-28T00:08:54;3.80;99.90
51567;DHT22;37657;53.182;5.638;2024-02-28T00:11:20;3.80;99.90
51567;DHT22;37657;53.182;5.638;2024-02-28T00:13:46;3.90;99.90
51567;DHT22;37657;53.182;5.638;2024-02-28T00:16:12;3.80;99.90
51567;DHT22;37657;53.182;5.638;2024-02-28T00:18:38;3.80;99.90
51567;DHT22;37657;53.182;5.638;2024-02-28T00:21:03;3.80;99.90
51567;DHT22;37657;53.182;5.638;2024-02-28T00:23:29;3.80;99.90
51567;DHT22;37657;53.182;5.638;2024-02-28T00:25:55;3.90;99.90
51567;DHT22;37657;53.182;5.638;2024-02-28T00:28:21;3.80;99.90
51567;DHT22;37657;53.182;5.638;2024-02-28T00:30:46;3.90;99.90
51567;DHT22;37657;53.182;5.638;2024-02-28T00:33:12;4.00;99.90
51567;DHT22;37657;53.182;5.638;2024-02-28T00:35:39;3.90;99.90
51567;DHT22;37657;53.182;5.638;2024-02-28T00:38:05;3.90;99.90
51567;DHT22;37657;53.182;5.638;2024-02-28T00:40:30;3.80;99.90
51567;DHT22;37657;53.182;5.638;2024-02-28T00:42:57;3.90;99.90
51567;DHT22;37657;53.182;5.638;2024-02-28T00:45:23;3.90;99.90
51567;DHT22;37657;53.182;5.638;2024-02-28T00:47:49;3.90;99.90
51567;DHT22;37657;53.182;5.638;2024-02-28T00:50:14;3.90;99.90
51567;DHT22;37657;53.182;5.638;2024-02-28T00:52:40;4.10;99.90
51567;DHT22;37657;53.182;5.638;2024-02-28T00:55:06;4.00;99.90
51567;DHT22;37657;53.182;5.638;2024-02-28T00:57:32;3.90;99.90
51567;DHT22;37657;53.182;5.638;2024-02-28T00:59:58;3.80;99.90
51567;DHT22;37657;53.182;5.638;2024-02-28T01:02:24;4.20;99.90
51567;DHT22;37657;53.182;5.638;2024-02-28T01:04:50;4.10;99.90
51567;DHT22;37657;53.182;5.638;2024-02-28T01:07:15;4.20;99.90
51567;DHT22;37657;53.182;5.638;2024-02-28T01:09:41;4.10;99.90
51567;DHT22;37657;53.182;5.638;2024-02-28T01:12:07;4.20;99.90
51567;DHT22;37657;53.182;5.638;2024-02-28T01:14:33;4.10;99.90
51567;DHT22;37657;53.182;5.638;2024-02-28T01:16:58;4.20;99.90
51567;DHT22;37657;53.182;5.638;2024-02-28T01:19:24;4.20;99.90
51567;DHT22;37657;53.182;5.638;2024-02-28T01:21:50;4.30;99.90
51567;DHT22;37657;53.182;5.638;2024-02-28T01:24:16;4.00;99.90
51567;DHT22;37657;53.182;5.638;2024-02-28T01:26:41;4.30;99.90
51567;DHT22;37657;53.182;5.638;2024-02-28T01:29:07;4.10;99.90
51567;DHT22;37657;53.182;5.638;2024-02-28T01:31:32;4.20;99.90
51567;DHT22;37657;53.182;5.638;2024-02-28T01:33:58;4.30;99.90
51567;DHT22;37657;53.182;5.638;2024-02-28T01:36:23;4.40;99.90
51567;DHT22;37657;53.182;5.638;2024-02-28T01:38:49;4.80;99.90
51567;DHT22;37657;53.182;5.638;2024-02-28T01:41:15;4.20;99.90
51567;DHT22;37657;53.182;5.638;2024-02-28T01:43:40;4.00;99.90
51567;DHT22;37657;53.182;5.638;2024-02-28T01:46:19;4.20;99.90
51567;DHT22;37657;53.182;5.638;2024-02-28T01:48:46;4.00;99.90
51567;DHT22;37657;53.182;5.638;2024-02-28T01:51:12;4.00;99.90
51567;DHT22;37657;53.182;5.638;2024-02-28T01:53:38;4.10;99.90
51567;DHT22;37657;53.182;5.638;2024-02-28T01:56:04;4.10;99.90
51567;DHT22;37657;53.182;5.638;2024-02-28T01:58:30;4.60;99.90
51567;DHT22;37657;53.182;5.638;2024-02-28T02:00:56;4.50;99.90
51567;DHT22;37657;53.182;5.638;2024-02-28T02:03:22;4.20;99.90
51567;DHT22;37657;53.182;5.638;2024-02-28T02:05:47;4.30;99.90
51567;DHT22;37657;53.182;5.638;2024-02-28T02:08:13;4.70;99.90
51567;DHT22;37657;53.182;5.638;2024-02-28T02:10:39;4.60;99.90
51567;DHT22;37657;53.182;5.638;2024-02-28T02:13:06;4.30;99.90
51567;DHT22;37657;53.182;5.638;2024-02-28T02:15:31;4.70;99.90
51567;DHT22;37657;53.182;5.638;2024-02-28T02:17:57;4.90;99.90
51567;DHT22;37657;53.182;5.638;2024-02-28T02:20:23;4.70;99.90
51567;DHT22;37657;53.182;5.638;2024-02-28T02:22:51;4.90;99.90
51567;DHT22;37657;53.182;5.638;2024-02-28T02:25:17;4.50;99.90
51567;DHT22;37657;53.182;5.638;2024-02-28T02:27:42;4.80;99.90
51567;DHT22;37657;53.182;5.638;2024-02-28T02:30:08;5.00;99.90
51567;DHT22;37657;53.182;5.638;2024-02-28T02:32:34;4.90;99.90
51567;DHT22;37657;53.182;5.638;2024-02-28T02:34:59;4.60;99.90
51567;DHT22;37657;53.182;5.638;2024-02-28T02:37:26;4.80;99.90
51567;DHT22;37657;53.182;5.638;2024-02-28T02:39:51;4.50;99.90
51567;DHT22;37657;53.182;5.638;2024-02-28T02:42:19;4.80;99.90
51567;DHT22;37657;53.182;5.638;2024-02-28T02:44:44;4.70;99.90
51567;DHT22;37657;53.182;5.638;2024-02-28T02:47:10;5.00;99.90
51567;DHT22;37657;53.182;5.638;2024-02-28T02:49:35;4.70;99.90
51567;DHT22;37657;53.182;5.638;2024-02-28T02:52:01;5.00;99.90
51567;DHT22;37657;53.182;5.638;2024-02-28T02:54:27;5.20;99.90
51567;DHT22;37657;53.182;5.638;2024-02-28T02:56:52;4.80;99.90
51567;DHT22;37657;53.182;5.638;2024-02-28T02:59:18;5.10;99.90
51567;DHT22;37657;53.182;5.638;2024-02-28T03:01:47;5.10;99.90
51567;DHT22;37657;53.182;5.638;2024-02-28T03:04:13;4.80;99.90
51567;DHT22;37657;53.182;5.638;2024-02-28T03:06:38;4.60;99.90
51567;DHT22;37657;53.182;5.638;2024-02-28T03:09:04;5.70;99.90
51567;DHT22;37657;53.182;5.638;2024-02-28T03:11:29;5.10;99.90
51567;DHT22;37657;53.182;5.638;2024-02-28T03:13:55;4.80;99.90
51567;DHT22;37657;53.182;5.638;2024-02-28T03:16:20;5.00;99.90
51567;DHT22;37657;53.182;5.638;2024-02-28T03:18:46;5.20;99.90
51567;DHT22;37657;53.182;5.638;2024-02-28T03:21:12;5.20;99.90
51567;DHT22;37657;53.182;5.638;2024-02-28T03:23:37;5.30;99.90
51567;DHT22;37657;53.182;5.638;2024-02-28T03:26:03;4.90;99.90
51567;DHT22;37657;53.182;5.638;2024-02-28T03:28:29;4.90;99.90
51567;DHT22;37657;53.182;5.638;2024-02-28T03:30:54;5.00;99.90
51567;DHT22;37657;53.182;5.638;2024-02-28T03:33:20;5.10;99.90
51567;DHT22;37657;53.182;5.638;2024-02-28T03:35:46;5.10;99.90
51567;DHT22;37657;53.182;5.638;2024-02-28T03:38:11;5.50;99.90
51567;DHT22;37657;53.182;5.638;2024-02-28T03:40:37;5.00;99.90
51567;DHT22;37657;53.182;5.638;2024-02-28T03:43:02;5.60;99.90
51567;DHT22;37657;53.182;5.638;2024-02-28T03:45:28;5.60;99.90
51567;DHT22;37657;53.182;5.638;2024-02-28T03:47:55;5.60;99.90
51567;DHT22;37657;53.182;5.638;2024-02-28T03:50:20;5.30;99.90
51567;DHT22;37657;53.182;5.638;2024-02-28T03:52:46;5.10;99.90
51567;DHT22;37657;53.182;5.638;2024-02-28T03:55:11;5.70;99.90
51567;DHT22;37657;53.182;5.638;2024-02-28T03:57:37;5.80;99.90
51567;DHT22;37657;53.182;5.638;2024-02-28T04:00:03;5.40;99.90
51567;DHT22;37657;53.182;5.638;2024-02-28T04:02:30;5.20;99.90
51567;DHT22;37657;53.182;5.638;2024-02-28T04:04:55;5.30;99.90
51567;DHT22;37657;53.182;5.638;2024-02-28T04:07:21;5.30;99.90
51567;DHT22;37657;53.182;5.638;2024-02-28T04:09:46;5.40;99.90
51567;DHT22;37657;53.182;5.638;2024-02-28T04:12:12;6.10;99.90
51567;DHT22;37657;53.182;5.638;2024-02-28T04:14:38;6.00;99.90
51567;DHT22;37657;53.182;5.638;2024-02-28T04:17:04;5.50;99.90
51567;DHT22;37657;53.182;5.638;2024-02-28T04:19:33;6.20;99.90
51567;DHT22;37657;53.182;5.638;2024-02-28T04:22:02;6.10;99.90
51567;DHT22;37657;53.182;5.638;2024-02-28T04:24:28;5.70;99.90
51567;DHT22;37657;53.182;5.638;2024-02-28T04:26:53;5.80;99.90
51567;DHT22;37657;53.182;5.638;2024-02-28T04:29:19;5.60;99.90
51567;DHT22;37657;53.182;5.638;2024-02-28T04:31:45;6.20;99.90
51567;DHT22;37657;53.182;5.638;2024-02-28T04:34:10;6.00;99.90
51567;DHT22;37657;53.182;5.638;2024-02-28T04:36:36;6.40;99.90
51567;DHT22;37657;53.182;5.638;2024-02-28T04:39:02;6.50;99.90
51567;DHT22;37657;53.182;5.638;2024-02-28T04:41:29;6.40;99.90
51567;DHT22;37657;53.182;5.638;2024-02-28T04:43:55;6.20;99.90
51567;DHT22;37657;53.182;5.638;2024-02-28T04:46:20;5.80;99.90
51567;DHT22;37657;53.182;5.638;2024-02-28T04:48:46;5.90;99.90
51567;DHT22;37657;53.182;5.638;2024-02-28T04:51:15;6.30;99.90
51567;DHT22;37657;53.182;5.638;2024-02-28T04:53:42;6.00;99.90
51567;DHT22;37657;53.182;5.638;2024-02-28T04:56:08;6.50;99.90
51567;DHT22;37657;53.182;5.638;2024-02-28T04:58:36;6.60;99.90
51567;DHT22;37657;53.182;5.638;2024-02-28T05:01:01;6.40;99.90
51567;DHT22;37657;53.182;5.638;2024-02-28T05:03:27;6.50;99.90
51567;DHT22;37657;53.182;5.638;2024-02-28T05:05:52;6.20;99.90
51567;DHT22;37657;53.182;5.638;2024-02-28T05:08:20;6.90;99.90
51567;DHT22;37657;53.182;5.638;2024-02-28T05:10:46;6.00;99.90
51567;DHT22;37657;53.182;5.638;2024-02-28T05:13:12;6.20;99.90
51567;DHT22;37657;53.182;5.638;2024-02-28T05:15:37;6.40;99.90
51567;DHT22;37657;53.182;5.638;2024-02-28T05:18:03;6.40;99.90
51567;DHT22;37657;53.182;5.638;2024-02-28T05:20:29;6.60;99.90
51567;DHT22;37657;53.182;5.638;2024-02-28T05:22:54;6.60;99.90
51567;DHT22;37657;53.182;5.638;2024-02-28T05:25:20;6.60;99.90
51567;DHT22;37657;53.182;5.638;2024-02-28T05:27:45;6.00;99.90
51567;DHT22;37657;53.182;5.638;2024-02-28T05:30:11;6.00;99.90
51567;DHT22;37657;53.182;5.638;2024-02-28T05:32:37;6.10;99.90
51567;DHT22;37657;53.182;5.638;2024-02-28T05:35:03;6.10;99.90
51567;DHT22;37657;53.182;5.638;2024-02-28T05:37:29;6.40;99.90
51567;DHT22;37657;53.182;5.638;2024-02-28T05:39:54;6.50;99.90
51567;DHT22;37657;53.182;5.638;2024-02-28T05:42:20;6.40;99.90
51567;DHT22;37657;53.182;5.638;2024-02-28T05:44:48;6.00;99.90
51567;DHT22;37657;53.182;5.638;2024-02-28T05:47:14;6.60;99.90
51567;DHT22;37657;53.182;5.638;2024-02-28T05:49:39;6.10;99.90
51567;DHT22;37657;53.182;5.638;2024-02-28T05:52:05;6.40;99.90
51567;DHT22;37657;53.182;5.638;2024-02-28T05:54:31;6.70;99.90
51567;DHT22;37657;53.182;5.638;2024-02-28T05:56:56;5.90;99.90
51567;DHT22;37657;53.182;5.638;2024-02-28T05:59:22;6.00;99.90
51567;DHT22;37657;53.182;5.638;2024-02-28T06:01:47;6.90;99.90
51567;DHT22;37657;53.182;5.638;2024-02-28T06:04:13;6.00;99.90
51567;DHT22;37657;53.182;5.638;2024-02-28T06:06:39;6.60;99.90
51567;DHT22;37657;53.182;5.638;2024-02-28T06:09:04;6.10;99.90
51567;DHT22;37657;53.182;5.638;2024-02-28T06:11:31;6.00;99.90
51567;DHT22;37657;53.182;5.638;2024-02-28T06:13:58;6.50;99.90
51567;DHT22;37657;53.182;5.638;2024-02-28T06:16:24;6.40;99.90
51567;DHT22;37657;53.182;5.638;2024-02-28T06:18:50;6.10;99.90
51567;DHT22;37657;53.182;5.638;2024-02-28T06:21:15;6.10;99.90
51567;DHT22;37657;53.182;5.638;2024-02-28T06:23:41;6.80;99.90
51567;DHT22;37657;53.182;5.638;2024-02-28T06:26:07;6.20;99.90
51567;DHT22;37657;53.182;5.638;2024-02-28T06:28:40;6.90;99.90
51567;DHT22;37657;53.182;5.638;2024-02-28T06:31:13;6.10;99.90
51567;DHT22;37657;53.182;5.638;2024-02-28T06:33:38;6.90;99.90
51567;DHT22;37657;53.182;5.638;2024-02-28T06:36:04;6.90;99.90
51567;DHT22;37657;53.182;5.638;2024-02-28T06:38:30;6.80;99.90
51567;DHT22;37657;53.182;5.638;2024-02-28T06:40:55;6.00;99.90
51567;DHT22;37657;53.182;5.638;2024-02-28T06:43:21;6.70;99.90
51567;DHT22;37657;53.182;5.638;2024-02-28T06:45:46;6.80;99.90
51567;DHT22;37657;53.182;5.638;2024-02-28T06:48:12;6.50;99.90
51567;DHT22;37657;53.182;5.638;2024-02-28T06:50:37;6.00;99.90
51567;DHT22;37657;53.182;5.638;2024-02-28T06:53:03;6.50;99.90
51567;DHT22;37657;53.182;5.638;2024-02-28T06:55:29;6.40;99.90
51567;DHT22;37657;53.182;5.638;2024-02-28T06:57:54;6.80;99.90
51567;DHT22;37657;53.182;5.638;2024-02-28T07:00:22;6.00;99.90
51567;DHT22;37657;53.182;5.638;2024-02-28T07:02:47;6.20;99.90
51567;DHT22;37657;53.182;5.638;2024-02-28T07:05:13;7.00;99.90
51567;DHT22;37657;53.182;5.638;2024-02-28T07:07:39;6.20;99.90
51567;DHT22;37657;53.182;5.638;2024-02-28T07:10:05;6.40;99.90
51567;DHT22;37657;53.182;5.638;2024-02-28T07:12:31;7.10;99.90
51567;DHT22;37657;53.182;5.638;2024-02-28T07:14:56;6.30;99.90
51567;DHT22;37657;53.182;5.638;2024-02-28T07:17:22;6.10;99.90
51567;DHT22;37657;53.182;5.638;2024-02-28T07:19:48;6.10;99.90
51567;DHT22;37657;53.182;5.638;2024-02-28T07:22:13;6.80;99.90
51567;DHT22;37657;53.182;5.638;2024-02-28T07:24:39;6.20;99.90
51567;DHT22;37657;53.182;5.638;2024-02-28T07:27:05;7.60;99.90
51567;DHT22;37657;53.182;5.638;2024-02-28T07:29:30;6.20;99.90
51567;DHT22;37657;53.182;5.638;2024-02-28T07:31:56;6.70;99.90
51567;DHT22;37657;53.182;5.638;2024-02-28T07:34:22;6.30;99.90
51567;DHT22;37657;53.182;5.638;2024-02-28T07:36:47;6.70;99.90
51567;DHT22;37657;53.182;5.638;2024-02-28T07:39:13;6.60;99.90
51567;DHT22;37657;53.182;5.638;2024-02-28T07:41:39;7.20;99.90
51567;DHT22;37657;53.182;5.638;2024-02-28T07:44:06;7.00;99.90
51567;DHT22;37657;53.182;5.638;2024-02-28T07:46:32;6.50;99.90
51567;DHT22;37657;53.182;5.638;2024-02-28T07:48:58;7.00;99.90
51567;DHT22;37657;53.182;5.638;2024-02-28T07:51:23;7.40;99.90
51567;DHT22;37657;53.182;5.638;2024-02-28T07:53:49;6.50;99.90
51567;DHT22;37657;53.182;5.638;2024-02-28T07:56:19;7.40;99.90
51567;DHT22;37657;53.182;5.638;2024-02-28T07:58:48;7.50;99.90
51567;DHT22;37657;53.182;5.638;2024-02-28T08:01:17;6.60;99.90
51567;DHT22;37657;53.182;5.638;2024-02-28T08:03:43;6.70;99.90
51567;DHT22;37657;53.182;5.638;2024-02-28T08:06:08;8.00;99.90
51567;DHT22;37657;53.182;5.638;2024-02-28T08:08:35;7.40;99.90
51567;DHT22;37657;53.182;5.638;2024-02-28T08:11:01;7.70;99.90
51567;DHT22;37657;53.182;5.638;2024-02-28T08:13:26;7.70;99.90
51567;DHT22;37657;53.182;5.638;2024-02-28T08:15:55;7.00;99.90
51567;DHT22;37657;53.182;5.638;2024-02-28T08:18:21;7.70;99.90
51567;DHT22;37657;53.182;5.638;2024-02-28T08:20:47;7.70;99.90
51567;DHT22;37657;53.182;5.638;2024-02-28T08:23:12;8.10;99.90
51567;DHT22;37657;53.182;5.638;2024-02-28T08:25:38;8.10;99.90
51567;DHT22;37657;53.182;5.638;2024-02-28T08:28:04;7.20;99.90
51567;DHT22;37657;53.182;5.638;2024-02-28T08:30:29;7.20;99.90
51567;DHT22;37657;53.182;5.638;2024-02-28T08:32:56;7.70;99.90
51567;DHT22;37657;53.182;5.638;2024-02-28T08:35:23;7.20;99.90
51567;DHT22;37657;53.182;5.638;2024-02-28T08:37:49;7.20;99.90
51567;DHT22;37657;53.182;5.638;2024-02-28T08:40:15;8.40;99.90
51567;DHT22;37657;53.182;5.638;2024-02-28T08:42:40;8.00;99.90
51567;DHT22;37657;53.182;5.638;2024-02-28T08:45:07;7.90;99.90
51567;DHT22;37657;53.182;5.638;2024-02-28T08:47:33;7.50;99.90
51567;DHT22;37657;53.182;5.638;2024-02-28T08:49:59;7.80;99.90
51567;DHT22;37657;53.182;5.638;2024-02-28T08:52:25;7.50;99.90
51567;DHT22;37657;53.182;5.638;2024-02-28T08:54:50;7.90;99.90
51567;DHT22;37657;53.182;5.638;2024-02-28T08:57:16;8.00;99.90
51567;DHT22;37657;53.182;5.638;2024-02-28T08:59:42;8.10;99.90
51567;DHT22;37657;53.182;5.638;2024-02-28T09:02:08;7.30;99.90
51567;DHT22;37657;53.182;5.638;2024-02-28T09:04:34;7.90;99.90
51567;DHT22;37657;53.182;5.638;2024-02-28T09:07:00;7.90;99.90
51567;DHT22;37657;53.182;5.638;2024-02-28T09:09:25;7.90;99.90
51567;DHT22;37657;53.182;5.638;2024-02-28T09:11:51;7.50;99.90
51567;DHT22;37657;53.182;5.638;2024-02-28T09:14:17;7.60;99.90
51567;DHT22;37657;53.182;5.638;2024-02-28T09:16:42;7.30;99.90
51567;DHT22;37657;53.182;5.638;2024-02-28T09:19:08;7.80;99.90
51567;DHT22;37657;53.182;5.638;2024-02-28T09:21:33;7.90;99.90
51567;DHT22;37657;53.182;5.638;2024-02-28T09:23:59;7.80;99.90
51567;DHT22;37657;53.182;5.638;2024-02-28T09:26:25;7.50;99.90
51567;DHT22;37657;53.182;5.638;2024-02-28T09:28:51;8.20;99.90
51567;DHT22;37657;53.182;5.638;2024-02-28T09:31:18;8.30;99.90
51567;DHT22;37657;53.182;5.638;2024-02-28T09:33:43;7.70;99.90
51567;DHT22;37657;53.182;5.638;2024-02-28T09:36:10;8.40;99.90
51567;DHT22;37657;53.182;5.638;2024-02-28T09:38:37;7.80;99.90
51567;DHT22;37657;53.182;5.638;2024-02-28T09:41:03;8.50;99.90
51567;DHT22;37657;53.182;5.638;2024-02-28T09:43:30;8.40;99.90
51567;DHT22;37657;53.182;5.638;2024-02-28T09:46:04;8.80;99.90
51567;DHT22;37657;53.182;5.638;2024-02-28T09:48:31;8.10;99.90
51567;DHT22;37657;53.182;5.638;2024-02-28T09:50:57;8.80;99.90
51567;DHT22;37657;53.182;5.638;2024-02-28T09:53:24;8.90;99.90
51567;DHT22;37657;53.182;5.638;2024-02-28T09:55:50;8.20;99.90
51567;DHT22;37657;53.182;5.638;2024-02-28T09:58:17;8.60;99.90
51567;DHT22;37657;53.182;5.638;2024-02-28T10:00:44;8.90;99.90
51567;DHT22;37657;53.182;5.638;2024-02-28T10:03:13;8.50;99.90
51567;DHT22;37657;53.182;5.638;2024-02-28T10:05:41;9.00;99.90
51567;DHT22;37657;53.182;5.638;2024-02-28T10:08:07;8.60;99.90
51567;DHT22;37657;53.182;5.638;2024-02-28T10:10:36;8.90;99.90
51567;DHT22;37657;53.182;5.638;2024-02-28T10:13:03;9.00;99.90
51567;DHT22;37657;53.182;5.638;2024-02-28T10:15:28;8.60;99.90
51567;DHT22;37657;53.182;5.638;2024-02-28T10:17:54;9.30;99.90
51567;DHT22;37657;53.182;5.638;2024-02-28T10:20:19;9.10;99.90
51567;DHT22;37657;53.182;5.638;2024-02-28T10:22:45;9.40;99.90
51567;DHT22;37657;53.182;5.638;2024-02-28T10:25:11;9.50;99.90
51567;DHT22;37657;53.182;5.638;2024-02-28T10:27:36;9.00;99.90
51567;DHT22;37657;53.182;5.638;2024-02-28T10:30:05;9.20;99.90
51567;DHT22;37657;53.182;5.638;2024-02-28T10:32:32;9.60;99.90
51567;DHT22;37657;53.182;5.638;2024-02-28T10:34:59;9.80;99.90
51567;DHT22;37657;53.182;5.638;2024-02-28T10:37:28;9.70;99.90
51567;DHT22;37657;53.182;5.638;2024-02-28T10:39:57;9.50;99.90
51567;DHT22;37657;53.182;5.638;2024-02-28T10:42:23;9.40;99.90
51567;DHT22;37657;53.182;5.638;2024-02-28T10:44:52;9.70;99.90
51567;DHT22;37657;53.182;5.638;2024-02-28T10:47:19;9.70;99.90
51567;DHT22;37657;53.182;5.638;2024-02-28T10:49:45;9.70;99.90
51567;DHT22;37657;53.182;5.638;2024-02-28T10:52:11;9.50;99.90
51567;DHT22;37657;53.182;5.638;2024-02-28T10:54:40;9.60;99.90
51567;DHT22;37657;53.182;5.638;2024-02-28T10:57:12;9.60;99.90
51567;DHT22;37657;53.182;5.638;2024-02-28T10:59:38;9.70;99.90
51567;DHT22;37657;53.182;5.638;2024-02-28T11:02:05;9.60;99.90
51567;DHT22;37657;53.182;5.638;2024-02-28T11:04:31;9.70;99.90
51567;DHT22;37657;53.182;5.638;2024-02-28T11:06:57;9.70;99.90
51567;DHT22;37657;53.182;5.638;2024-02-28T11:09:24;9.70;99.90
51567;DHT22;37657;53.182;5.638;2024-02-28T11:11:51;9.40;99.90
51567;DHT22;37657;53.182;5.638;2024-02-28T11:14:17;9.50;99.90
51567;DHT22;37657;53.182;5.638;2024-02-28T11:16:47;9.70;99.90
51567;DHT22;37657;53.182;5.638;2024-02-28T11:19:21;9.50;99.90
51567;DHT22;37657;53.182;5.638;2024-02-28T11:21:54;9.60;99.90
51567;DHT22;37657;53.182;5.638;2024-02-28T11:24:24;9.60;99.90
51567;DHT22;37657;53.182;5.638;2024-02-28T11:26:51;9.70;99.90
51567;DHT22;37657;53.182;5.638;2024-02-28T11:29:27;9.50;99.90
51567;DHT22;37657;53.182;5.638;2024-02-28T11:31:56;9.60;99.90
51567;DHT22;37657;53.182;5.638;2024-02-28T11:34:22;9.70;99.90
51567;DHT22;37657;53.182;5.638;2024-02-28T11:36:49;9.60;99.90
51567;DHT22;37657;53.182;5.638;2024-02-28T11:39:15;9.40;99.90
51567;DHT22;37657;53.182;5.638;2024-02-28T11:41:41;9.60;99.90
51567;DHT22;37657;53.182;5.638;2024-02-28T11:44:06;9.60;99.90
51567;DHT22;37657;53.182;5.638;2024-02-28T11:46:32;9.50;99.90
51567;DHT22;37657;53.182;5.638;2024-02-28T11:48:58;9.40;99.90
51567;DHT22;37657;53.182;5.638;2024-02-28T11:51:26;9.60;99.90
51567;DHT22;37657;53.182;5.638;2024-02-28T11:53:51;9.50;99.90
51567;DHT22;37657;53.182;5.638;2024-02-28T11:56:17;9.50;99.90
51567;DHT22;37657;53.182;5.638;2024-02-28T11:58:50;9.40;99.90
51567;DHT22;37657;53.182;5.638;2024-02-28T12:01:16;9.50;99.90
51567;DHT22;37657;53.182;5.638;2024-02-28T12:03:45;9.60;99.90
51567;DHT22;37657;53.182;5.638;2024-02-28T12:06:11;9.60;99.90
51567;DHT22;37657;53.182;5.638;2024-02-28T12:08:37;9.60;99.90
51567;DHT22;37657;53.182;5.638;2024-02-28T12:11:08;9.80;99.90
51567;DHT22;37657;53.182;5.638;2024-02-28T12:13:36;9.90;99.90
51567;DHT22;37657;53.182;5.638;2024-02-28T12:16:03;10.00;99.90
51567;DHT22;37657;53.182;5.638;2024-02-28T12:18:29;9.90;99.90
51567;DHT22;37657;53.182;5.638;2024-02-28T12:20:55;9.90;99.90
51567;DHT22;37657;53.182;5.638;2024-02-28T12:23:21;9.80;99.90
51567;DHT22;37657;53.182;5.638;2024-02-28T12:25:46;9.70;99.90
51567;DHT22;37657;53.182;5.638;2024-02-28T12:28:12;9.60;99.90
51567;DHT22;37657;53.182;5.638;2024-02-28T12:30:42;9.80;99.90
51567;DHT22;37657;53.182;5.638;2024-02-28T12:33:08;9.50;99.90
51567;DHT22;37657;53.182;5.638;2024-02-28T12:35:34;9.60;99.90
51567;DHT22;37657;53.182;5.638;2024-02-28T12:38:00;9.60;99.90
51567;DHT22;37657;53.182;5.638;2024-02-28T12:40:25;9.70;99.90
51567;DHT22;37657;53.182;5.638;2024-02-28T12:42:51;9.80;99.90
51567;DHT22;37657;53.182;5.638;2024-02-28T12:45:16;9.60;99.90
51567;DHT22;37657;53.182;5.638;2024-02-28T12:47:42;9.50;99.90
51567;DHT22;37657;53.182;5.638;2024-02-28T12:50:08;9.50;99.90
51567;DHT22;37657;53.182;5.638;2024-02-28T12:52:35;9.40;99.90
51567;DHT22;37657;53.182;5.638;2024-02-28T12:55:00;9.50;99.90
51567;DHT22;37657;53.182;5.638;2024-02-28T12:57:26;9.40;99.90
51567;DHT22;37657;53.182;5.638;2024-02-28T12:59:52;9.60;99.90
51567;DHT22;37657;53.182;5.638;2024-02-28T13:02:17;9.60;99.90
51567;DHT22;37657;53.182;5.638;2024-02-28T13:04:45;9.50;99.90
51567;DHT22;37657;53.182;5.638;2024-02-28T13:07:10;9.80;99.90
51567;DHT22;37657;53.182;5.638;2024-02-28T13:09:37;9.80;99.90
51567;DHT22;37657;53.182;5.638;2024-02-28T13:12:03;9.80;99.90
51567;DHT22;37657;53.182;5.638;2024-02-28T13:14:30;9.70;99.90
51567;DHT22;37657;53.182;5.638;2024-02-28T13:16:55;9.70;99.90
51567;DHT22;37657;53.182;5.638;2024-02-28T13:19:21;9.70;99.90
51567;DHT22;37657;53.182;5.638;2024-02-28T13:21:47;9.90;99.90
51567;DHT22;37657;53.182;5.638;2024-02-28T13:24:13;10.00;99.90
51567;DHT22;37657;53.182;5.638;2024-02-28T13:26:40;9.90;99.90
51567;DHT22;37657;53.182;5.638;2024-02-28T13:29:06;9.70;99.90
51567;DHT22;37657;53.182;5.638;2024-02-28T13:31:33;9.80;99.90
51567;DHT22;37657;53.182;5.638;2024-02-28T13:34:00;10.10;99.90
51567;DHT22;37657;53.182;5.638;2024-02-28T13:36:26;9.80;99.90
51567;DHT22;37657;53.182;5.638;2024-02-28T13:38:51;9.90;99.90
51567;DHT22;37657;53.182;5.638;2024-02-28T13:41:17;9.80;99.90
51567;DHT22;37657;53.182;5.638;2024-02-28T13:43:43;9.70;99.90
51567;DHT22;37657;53.182;5.638;2024-02-28T13:46:08;9.80;99.90
51567;DHT22;37657;53.182;5.638;2024-02-28T13:48:35;9.80;99.90
51567;DHT22;37657;53.182;5.638;2024-02-28T13:51:01;9.70;99.90
51567;DHT22;37657;53.182;5.638;2024-02-28T13:53:27;9.70;99.90
51567;DHT22;37657;53.182;5.638;2024-02-28T13:55:53;9.70;99.90
51567;DHT22;37657;53.182;5.638;2024-02-28T13:58:18;9.80;99.90
51567;DHT22;37657;53.182;5.638;2024-02-28T14:00:45;9.80;99.90
51567;DHT22;37657;53.182;5.638;2024-02-28T14:03:12;9.80;99.90
51567;DHT22;37657;53.182;5.638;2024-02-28T14:05:37;9.60;99.90
51567;DHT22;37657;53.182;5.638;2024-02-28T14:08:03;9.60;99.90
51567;DHT22;37657;53.182;5.638;2024-02-28T14:10:29;9.60;99.90
51567;DHT22;37657;53.182;5.638;2024-02-28T14:12:55;9.60;99.90
51567;DHT22;37657;53.182;5.638;2024-02-28T14:15:22;9.60;99.90
51567;DHT22;37657;53.182;5.638;2024-02-28T14:17:48;9.60;99.90
51567;DHT22;37657;53.182;5.638;2024-02-28T14:20:14;9.50;99.90
51567;DHT22;37657;53.182;5.638;2024-02-28T14:22:40;9.40;99.90
51567;DHT22;37657;53.182;5.638;2024-02-28T14:25:17;9.40;99.90
51567;DHT22;37657;53.182;5.638;2024-02-28T14:27:47;9.50;99.90
51567;DHT22;37657;53.182;5.638;2024-02-28T14:30:13;9.60;99.90
51567;DHT22;37657;53.182;5.638;2024-02-28T14:32:40;9.50;99.90
51567;DHT22;37657;53.182;5.638;2024-02-28T14:35:07;9.40;99.90
51567;DHT22;37657;53.182;5.638;2024-02-28T14:37:37;9.50;99.90
51567;DHT22;37657;53.182;5.638;2024-02-28T14:40:07;9.50;99.90
51567;DHT22;37657;53.182;5.638;2024-02-28T14:42:40;9.30;99.90
51567;DHT22;37657;53.182;5.638;2024-02-28T14:45:09;9.40;99.90
51567;DHT22;37657;53.182;5.638;2024-02-28T14:47:39;9.40;99.90
51567;DHT22;37657;53.182;5.638;2024-02-28T14:50:06;9.40;99.90
51567;DHT22;37657;53.182;5.638;2024-02-28T14:52:39;9.30;99.90
51567;DHT22;37657;53.182;5.638;2024-02-28T14:55:10;9.30;99.90
51567;DHT22;37657;53.182;5.638;2024-02-28T14:57:39;9.20;99.90
51567;DHT22;37657;53.182;5.638;2024-02-28T15:00:09;9.20;99.90
51567;DHT22;37657;53.182;5.638;2024-02-28T15:02:39;9.20;99.90
51567;DHT22;37657;53.182;5.638;2024-02-28T15:05:05;9.30;99.90
51567;DHT22;37657;53.182;5.638;2024-02-28T15:07:32;9.40;99.90
51567;DHT22;37657;53.182;5.638;2024-02-28T15:09:58;9.50;99.90
51567;DHT22;37657;53.182;5.638;2024-02-28T15:12:28;9.40;99.90
51567;DHT22;37657;53.182;5.638;2024-02-28T15:14:55;9.40;99.90
51567;DHT22;37657;53.182;5.638;2024-02-28T15:17:21;9.50;99.90
51567;DHT22;37657;53.182;5.638;2024-02-28T15:19:47;9.40;99.90
51567;DHT22;37657;53.182;5.638;2024-02-28T15:22:13;9.60;99.90
51567;DHT22;37657;53.182;5.638;2024-02-28T15:24:38;9.40;99.90
51567;DHT22;37657;53.182;5.638;2024-02-28T15:27:05;9.40;99.90
51567;DHT22;37657;53.182;5.638;2024-02-28T15:29:31;9.30;99.90
51567;DHT22;37657;53.182;5.638;2024-02-28T15:31:57;9.40;99.90
51567;DHT22;37657;53.182;5.638;2024-02-28T15:34:23;9.40;99.90
51567;DHT22;37657;53.182;5.638;2024-02-28T15:36:49;9.30;99.90
51567;DHT22;37657;53.182;5.638;2024-02-28T15:39:15;9.40;99.90